Maxville, Florida
Current Conditions -  °F | °C
As of 8:50 AM on Monday 26 Jan 2015 (Local Time) from KVQQ Reporting Station
Clear Clear  
Wind Chill: 52°   Ceiling: Unl
Heat Index: 52°   Visibility: 10mi
Dew Point: 48°   Wind: 12mph
Humidity: 88%   Direction: 280°W
Pressure: 29.85"   Gusts: NA
Location:  30.2098°N, 81.9726°W
Report Text: KVQQ 261350Z 28010KT 10SM CLR 11/09 A2985
Loading
Personal Weather Stations






























Interactive Weather Map New forecast layout! Learn more

10-Day Weather Forecast

Advertisements
Track Severe Weather on mobile